Time;durP1;ratioP1;P1;durP2;ratioP2;P2;SDS_P1;SDS_P2;PMS_P1;PMS_P2;Temp;Humidity;BMP_temperature;BMP_pressure;BME280_temperature;BME280_humidity;BME280_pressure;Samples;Min_cycle;Max_cycle;Signal;HPM_P1;HPM_P2
2022/02/28 00:00:18;;;;;;;0.00;0.00;;;;;;;10.68;68.99;100705.41;7366474;19;20085;-64
2022/02/28 00:02:45;;;;;;;0.10;0.10;;;;;;;10.55;69.96;100687.41;7358358;19;20003;-64
2022/02/28 00:05:10;;;;;;;0.10;0.10;;;;;;;10.65;69.50;100686.31;7361764;19;20010;-64
2022/02/28 00:07:36;;;;;;;0.10;0.10;;;;;;;10.60;69.54;100677.72;7368792;19;20078;-64
2022/02/28 00:10:04;;;;;;;0.00;0.00;;;;;;;10.69;69.44;100686.22;7364235;19;20521;-64
2022/02/28 00:12:29;;;;;;;;;;;;;;;10.73;68.40;100677.41;7368297;19;20019;-64
2022/02/28 00:14:55;;;;;;;0.00;0.00;;;;;;;10.71;69.85;100684.44;7364170;19;20316;-64
2022/02/28 00:17:20;;;;;;;0.10;0.10;;;;;;;10.71;68.79;100679.22;7370730;19;20107;-64
2022/02/28 00:19:46;;;;;;;0.00;0.00;;;;;;;10.72;69.16;100675.72;7373636;19;20014;-64
2022/02/28 00:22:11;;;;;;;0.10;0.10;;;;;;;10.74;68.83;100661.69;7369117;19;20014;-63
2022/02/28 00:24:37;;;;;;;0.10;0.10;;;;;;;10.76;69.36;100661.69;7373380;19;20006;-64
2022/02/28 00:27:02;;;;;;;0.00;0.00;;;;;;;10.72;69.64;100653.06;7368407;19;20035;-64
2022/02/28 00:29:28;;;;;;;0.00;0.00;;;;;;;10.80;69.46;100652.88;7366678;19;20007;-64
2022/02/28 00:31:53;;;;;;;0.03;0.03;;;;;;;10.80;69.09;100647.66;7364427;19;20358;-64
2022/02/28 00:34:19;;;;;;;0.00;0.00;;;;;;;10.82;69.01;100653.69;7353886;19;20014;-64
2022/02/28 00:36:44;;;;;;;0.10;0.10;;;;;;;10.83;69.05;100652.78;7368103;19;20041;-63
2022/02/28 00:39:10;;;;;;;0.00;0.00;;;;;;;10.83;69.22;100648.41;7354806;19;20023;-63
2022/02/28 00:41:35;;;;;;;0.00;0.00;;;;;;;10.83;69.12;100656.25;7361702;19;20289;-64
2022/02/28 00:44:01;;;;;;;0.10;0.10;;;;;;;10.84;69.45;100659.72;7355903;19;20021;-64
2022/02/28 00:46:26;;;;;;;0.00;0.00;;;;;;;10.84;69.45;100663.19;7362494;19;20023;-63
2022/02/28 00:48:52;;;;;;;0.00;0.00;;;;;;;10.81;68.92;100671.13;7362824;19;20022;-63
2022/02/28 00:51:17;;;;;;;0.02;0.02;;;;;;;10.84;68.77;100676.25;6601055;19;10001241;-64
2022/02/28 00:53:43;;;;;;;0.00;0.00;;;;;;;10.88;69.09;100677.03;1722617;19;10002104;-63
2022/02/28 00:56:08;;;;;;;0.00;0.00;;;;;;;10.87;68.80;100675.34;7354058;19;20042;-64
2022/02/28 00:58:34;;;;;;;0.10;0.10;;;;;;;10.90;69.29;100675.28;7359865;19;20004;-63
2022/02/28 01:01:00;;;;;;;0.00;0.00;;;;;;;10.94;69.29;100671.66;7356009;19;20015;-63
2022/02/28 01:03:26;;;;;;;0.10;0.10;;;;;;;10.96;69.57;100664.66;7353020;19;20058;-63
2022/02/28 01:06:05;;;;;;;0.00;0.00;;;;;;;11.01;69.21;100678.47;4087609;19;10003403;-64
2022/02/28 01:08:31;;;;;;;0.00;0.00;;;;;;;10.99;69.51;100669.78;5032411;19;10001368;-63
2022/02/28 01:10:56;;;;;;;0.00;0.00;;;;;;;11.03;69.23;100670.59;7367216;19;20032;-64
2022/02/28 01:13:22;;;;;;;0.00;0.00;;;;;;;10.95;69.75;100656.84;7373043;19;20014;-63
2022/02/28 01:15:48;;;;;;;0.00;0.00;;;;;;;11.03;69.23;100671.44;7369545;19;20014;-63
2022/02/28 01:18:13;;;;;;;0.00;0.00;;;;;;;11.01;70.39;100665.41;7361596;19;20010;-63
2022/02/28 01:20:39;;;;;;;0.10;0.10;;;;;;;10.98;69.81;100673.31;7362663;19;20482;-63
2022/02/28 01:23:04;;;;;;;0.03;0.03;;;;;;;10.91;70.47;100666.53;7365431;19;20491;-64
2022/02/28 01:25:30;;;;;;;0.00;0.00;;;;;;;10.84;71.21;100670.19;7357043;19;20003;-64
2022/02/28 01:27:56;;;;;;;0.00;0.00;;;;;;;10.79;70.92;100667.66;7364706;19;20078;-64
2022/02/28 01:30:22;;;;;;;0.00;0.00;;;;;;;10.71;71.37;100658.31;7365792;19;20403;-64
2022/02/28 01:32:47;;;;;;;0.00;0.00;;;;;;;10.66;71.88;100661.03;7364295;19;20014;-64
2022/02/28 01:35:14;;;;;;;0.00;0.00;;;;;;;10.50;72.14;100644.03;7361815;19;20037;-64
2022/02/28 01:37:40;;;;;;;0.00;0.00;;;;;;;10.56;71.67;100655.19;7366248;19;20373;-65
2022/02/28 01:40:08;;;;;;;0.00;0.00;;;;;;;10.55;71.88;100648.25;7363990;19;20057;-65
2022/02/28 01:42:34;;;;;;;0.00;0.00;;;;;;;10.50;72.51;100644.03;7361938;19;20069;-64
2022/02/28 01:44:59;;;;;;;0.00;0.00;;;;;;;10.38;72.81;100629.47;7361215;19;20437;-64
2022/02/28 01:47:25;;;;;;;0.00;0.00;;;;;;;10.42;72.59;100649.41;7363386;19;20043;-64
2022/02/28 01:49:51;;;;;;;0.00;0.00;;;;;;;10.43;72.19;100640.69;7365078;19;20035;-65
2022/02/28 01:52:16;;;;;;;0.00;0.00;;;;;;;10.40;73.53;100648.59;7357832;19;20019;-65
2022/02/28 01:54:45;;;;;;;0.00;0.00;;;;;;;10.41;72.57;100649.44;7365888;19;20077;-65
2022/02/28 01:57:11;;;;;;;0.00;0.00;;;;;;;10.36;73.36;100646.94;7364469;19;20006;-65
2022/02/28 01:59:36;;;;;;;0.00;0.00;;;;;;;10.37;72.87;100653.88;7363703;19;20014;-65
2022/02/28 02:02:02;;;;;;;0.00;0.00;;;;;;;10.33;73.46;100647.84;7364939;19;20015;-65
2022/02/28 02:04:27;;;;;;;0.00;0.00;;;;;;;10.35;73.37;100651.31;7355991;19;20014;-65
2022/02/28 02:06:53;;;;;;;0.00;0.00;;;;;;;10.35;73.44;100659.13;7360624;19;20094;-65
2022/02/28 02:09:19;;;;;;;0.00;0.00;;;;;;;10.35;74.06;100647.84;7363802;19;20006;-66
2022/02/28 02:11:45;;;;;;;0.00;0.00;;;;;;;10.37;73.88;100648.66;7362452;19;20523;-65
2022/02/28 02:14:12;;;;;;;0.00;0.00;;;;;;;10.30;74.10;100631.44;7363317;19;20023;-65
2022/02/28 02:16:39;;;;;;;0.00;0.00;;;;;;;10.41;73.93;100650.31;7361765;19;20010;-65
2022/02/28 02:19:05;;;;;;;0.00;0.00;;;;;;;10.36;73.62;100639.13;7364058;19;20015;-66
2022/02/28 02:21:31;;;;;;;0.00;0.00;;;;;;;10.44;73.87;100652.88;7363708;19;20038;-66
2022/02/28 02:23:57;;;;;;;0.08;0.08;;;;;;;10.48;73.39;100661.47;7360913;19;20018;-65
2022/02/28 02:26:23;;;;;;;0.00;0.00;;;;;;;10.51;73.28;100662.25;7362757;19;20010;-65
2022/02/28 02:28:48;;;;;;;0.05;0.05;;;;;;;10.52;73.58;100669.19;7358752;19;20006;-65
2022/02/28 02:31:14;;;;;;;0.00;0.00;;;;;;;10.56;73.48;100662.16;7360143;19;20015;-64
2022/02/28 02:33:39;;;;;;;0.10;0.10;;;;;;;10.54;73.50;100667.41;7364290;19;20018;-65
2022/02/28 02:36:07;;;;;;;0.00;0.00;;;;;;;10.52;73.58;100658.75;7361741;19;20573;-65
2022/02/28 02:38:35;;;;;;;0.00;0.00;;;;;;;10.50;73.95;100668.38;7357331;19;20007;-66
2022/02/28 02:41:01;;;;;;;;;;;;;;;10.50;72.91;100665.78;7364015;19;20348;-65
2022/02/28 02:43:26;;;;;;;0.00;0.00;;;;;;;10.45;73.49;100661.53;7361618;19;19927;-65
2022/02/28 02:45:52;;;;;;;0.10;0.10;;;;;;;10.42;73.91;100667.69;7360829;19;20039;-65
2022/02/28 02:48:23;;;;;;;0.00;0.00;;;;;;;10.40;73.73;100672.09;7363324;19;20007;-66
2022/02/28 02:50:49;;;;;;;0.00;0.00;;;;;;;10.37;74.25;100674.75;7367252;19;20010;-66
2022/02/28 02:53:14;;;;;;;0.00;0.00;;;;;;;10.36;74.04;100675.66;7369591;19;20018;-65
2022/02/28 02:55:40;;;;;;;0.10;0.10;;;;;;;10.35;73.98;100687.00;7366839;19;20006;-66
2022/02/28 02:58:06;;;;;;;0.00;0.00;;;;;;;10.22;74.38;100670.69;7363154;19;20002;-65
2022/02/28 03:00:32;;;;;;;0.00;0.00;;;;;;;10.28;75.02;100675.81;7359203;19;20009;-63
2022/02/28 03:02:58;;;;;;;0.00;0.00;;;;;;;10.28;74.99;100688.00;7353980;19;20036;-64
2022/02/28 03:05:24;;;;;;;0.00;0.00;;;;;;;10.27;74.93;100681.94;7356860;19;20014;-64
2022/02/28 03:07:50;;;;;;;0.00;0.00;;;;;;;10.27;74.86;100678.47;7360285;19;20006;-65
2022/02/28 03:10:15;;;;;;;0.00;0.00;;;;;;;10.25;75.62;100678.50;7358745;19;20053;-64
2022/02/28 03:12:41;;;;;;;0.00;0.00;;;;;;;10.22;75.52;100678.53;7361996;19;20006;-63
2022/02/28 03:15:07;;;;;;;0.00;0.00;;;;;;;10.18;75.80;100674.25;7357918;19;20495;-63
2022/02/28 03:17:33;;;;;;;0.00;0.00;;;;;;;10.19;75.44;100681.22;7364440;19;20029;-62
2022/02/28 03:20:09;;;;;;;0.00;0.00;;;;;;;10.19;76.24;100685.56;7175907;19;10000719;-63
2022/02/28 03:22:34;;;;;;;0.00;0.00;;;;;;;10.20;75.78;100679.47;1621150;19;10002042;-63
2022/02/28 03:25:00;;;;;;;0.00;0.00;;;;;;;10.19;75.05;100686.44;7366586;19;20040;-63
2022/02/28 03:27:25;;;;;;;0.10;0.10;;;;;;;10.14;76.21;100683.06;7367387;19;20465;-63
2022/02/28 03:29:51;;;;;;;0.00;0.00;;;;;;;10.19;76.36;100690.78;7366449;19;20025;-63
2022/02/28 03:32:16;;;;;;;0.00;0.00;;;;;;;10.19;76.24;100688.16;7363436;19;20038;-63
2022/02/28 03:34:42;;;;;;;0.00;0.00;;;;;;;10.20;75.71;100688.16;7370728;19;20014;-63
2022/02/28 03:37:07;;;;;;;0.03;0.03;;;;;;;10.10;75.53;100671.81;7370708;19;20010;-64
2022/02/28 03:39:33;;;;;;;0.08;0.08;;;;;;;10.21;75.59;100691.63;7375087;19;20002;-63
2022/02/28 03:41:58;;;;;;;0.00;0.00;;;;;;;10.21;76.22;100689.88;7373544;19;20014;-63
2022/02/28 03:44:24;;;;;;;0.00;0.00;;;;;;;10.20;76.30;100693.38;7369420;19;20118;-63
2022/02/28 03:46:51;;;;;;;0.00;0.00;;;;;;;10.22;76.08;100691.56;7366371;19;21004;-63
2022/02/28 03:49:18;;;;;;;0.00;0.00;;;;;;;10.23;76.86;100692.44;7360693;19;20033;-63
2022/02/28 03:51:44;;;;;;;0.00;0.00;;;;;;;10.22;77.08;100688.09;7363476;19;20006;-64
2022/02/28 03:54:13;;;;;;;0.00;0.00;;;;;;;10.22;76.57;100686.34;7360855;19;20094;-63
2022/02/28 03:56:42;;;;;;;0.00;0.00;;;;;;;10.23;76.75;100672.41;7361529;19;20258;-63
2022/02/28 03:59:09;;;;;;;0.00;0.00;;;;;;;10.24;76.79;100683.75;7361504;19;20013;-63
2022/02/28 04:01:34;;;;;;;0.00;0.00;;;;;;;10.24;76.85;100673.28;7366223;19;20018;-63
2022/02/28 04:04:02;;;;;;;0.00;0.00;;;;;;;10.24;77.39;100678.50;7366464;19;20017;-63
2022/02/28 04:06:29;;;;;;;0.00;0.00;;;;;;;10.25;77.00;100680.25;7357462;19;20010;-63
2022/02/28 04:08:58;;;;;;;0.00;0.00;;;;;;;10.27;77.00;100688.91;7358399;19;20002;-63
2022/02/28 04:11:24;;;;;;;0.00;0.00;;;;;;;10.27;77.28;100678.47;7361531;19;20036;-63
2022/02/28 04:13:49;;;;;;;0.00;0.00;;;;;;;10.25;76.90;100682.88;7364019;19;20010;-64
2022/02/28 04:16:15;;;;;;;0.10;0.10;;;;;;;10.29;77.02;100687.09;7360084;19;20018;-63
2022/02/28 04:18:40;;;;;;;0.00;0.00;;;;;;;10.29;77.30;100684.50;7359825;19;20006;-63
2022/02/28 04:21:06;;;;;;;0.00;0.00;;;;;;;10.30;77.42;100691.47;7361492;19;20026;-64
2022/02/28 04:23:31;;;;;;;0.10;0.10;;;;;;;10.30;77.60;100683.63;7359085;19;20029;-64
2022/02/28 04:25:59;;;;;;;0.00;0.00;;;;;;;10.27;77.75;100684.53;7367630;19;20034;-64
2022/02/28 04:28:25;;;;;;;0.00;0.00;;;;;;;10.32;77.50;100697.50;7363514;19;20033;-64
2022/02/28 04:30:50;;;;;;;0.10;0.10;;;;;;;10.32;78.11;100700.09;7369904;19;20014;-64
2022/02/28 04:33:16;;;;;;;0.00;0.00;;;;;;;10.33;78.30;100693.97;7367597;19;20010;-64
2022/02/28 04:35:41;;;;;;;0.00;0.00;;;;;;;10.34;78.37;100690.47;7373227;19;20010;-64
2022/02/28 04:38:06;;;;;;;0.00;0.00;;;;;;;10.34;77.97;100680.91;7364299;19;20382;-64
2022/02/28 04:40:33;;;;;;;0.00;0.00;;;;;;;10.36;78.03;100683.50;7364584;19;20686;-64
2022/02/28 04:42:59;;;;;;;0.00;0.00;;;;;;;10.37;78.24;100691.28;7364151;19;20049;-64
2022/02/28 04:45:24;;;;;;;0.00;0.00;;;;;;;10.29;77.96;100661.91;7361867;19;20010;-64
2022/02/28 04:47:50;;;;;;;0.00;0.00;;;;;;;10.40;78.41;100695.59;7366485;19;20043;-65
2022/02/28 04:50:16;;;;;;;0.00;0.00;;;;;;;10.40;78.37;100685.16;7364847;19;20624;-64
2022/02/28 04:52:41;;;;;;;0.00;0.00;;;;;;;10.42;78.52;100688.56;7365163;19;20014;-64
2022/02/28 04:55:07;;;;;;;0.00;0.00;;;;;;;10.43;77.95;100685.06;7363058;19;20092;-65
2022/02/28 04:57:40;;;;;;;0.00;0.00;;;;;;;10.48;78.19;100688.41;7364425;19;20046;-65
2022/02/28 05:00:07;;;;;;;0.03;0.03;;;;;;;10.45;78.68;100683.28;7365396;19;20042;-65
2022/02/28 05:02:32;;;;;;;0.00;0.00;;;;;;;10.39;78.89;100672.97;7365784;19;20503;-65
2022/02/28 05:04:58;;;;;;;0.00;0.00;;;;;;;10.38;78.48;100676.47;7365739;19;20014;-65
2022/02/28 05:07:23;;;;;;;0.00;0.00;;;;;;;10.50;78.50;100694.50;7364523;19;20840;-65
2022/02/28 05:09:49;;;;;;;0.00;0.00;;;;;;;10.52;78.85;100700.53;7360984;19;20471;-65
2022/02/28 05:12:14;;;;;;;0.10;0.10;;;;;;;10.47;78.56;100697.16;7362186;19;20011;-65
2022/02/28 05:14:39;;;;;;;0.00;0.00;;;;;;;10.56;78.64;100722.22;7363240;19;20022;-65
2022/02/28 05:17:05;;;;;;;0.00;0.00;;;;;;;10.58;78.83;100721.25;7365150;19;20745;-65
2022/02/28 05:19:30;;;;;;;0.00;0.00;;;;;;;10.60;79.16;100729.94;7364060;19;20379;-65
2022/02/28 05:22:05;;;;;;;0.10;0.10;;;;;;;10.62;78.97;100738.59;4865064;19;10022142;-65
2022/02/28 05:24:31;;;;;;;0.00;0.00;;;;;;;10.67;78.97;100735.03;4008306;19;10002150;-65
2022/02/28 05:26:57;;;;;;;0.00;0.00;;;;;;;10.70;79.04;100746.28;7365265;19;20018;-65
2022/02/28 05:29:22;;;;;;;0.00;0.00;;;;;;;10.72;78.24;100754.06;7363021;19;20356;-65
2022/02/28 05:31:48;;;;;;;0.00;0.00;;;;;;;10.76;78.63;100750.50;7356778;19;20011;-65
2022/02/28 05:34:13;;;;;;;0.00;0.00;;;;;;;10.74;78.47;100747.03;7363783;19;20007;-65
2022/02/28 05:36:38;;;;;;;0.00;0.00;;;;;;;10.82;78.37;100756.44;7362320;19;20014;-65
2022/02/28 05:39:04;;;;;;;0.00;0.00;;;;;;;10.85;77.94;100750.28;7361416;19;20010;-65
2022/02/28 05:41:29;;;;;;;0.00;0.00;;;;;;;10.86;78.20;100752.84;7362448;19;20089;-65
2022/02/28 05:43:55;;;;;;;0.00;0.00;;;;;;;10.87;78.14;100761.56;7362936;19;20014;-66
2022/02/28 05:46:20;;;;;;;0.03;0.03;;;;;;;10.87;77.99;100748.50;7362319;19;20013;-65
2022/02/28 05:48:46;;;;;;;0.00;0.00;;;;;;;10.79;78.17;100724.28;7364907;19;20042;-65
2022/02/28 05:51:11;;;;;;;0.00;0.00;;;;;;;10.89;78.36;100731.00;7360505;19;20425;-65
2022/02/28 05:53:37;;;;;;;0.00;0.00;;;;;;;10.91;78.13;100732.72;7363147;19;20010;-65
2022/02/28 05:56:03;;;;;;;0.05;0.05;;;;;;;10.93;78.19;100743.13;7366288;19;20018;-66
2022/02/28 05:58:28;;;;;;;0.00;0.00;;;;;;;10.94;78.03;100733.50;7359491;19;20038;-65
2022/02/28 06:00:53;;;;;;;0.00;0.00;;;;;;;10.94;78.20;100742.22;7365220;19;20013;-65
2022/02/28 06:03:19;;;;;;;0.00;0.00;;;;;;;10.96;78.07;100743.06;7360694;19;20009;-65
2022/02/28 06:05:44;;;;;;;0.00;0.00;;;;;;;10.97;78.03;100743.91;7365606;19;20014;-65
2022/02/28 06:08:10;;;;;;;0.00;0.00;;;;;;;10.97;78.30;100757.81;7365191;19;20006;-65
2022/02/28 06:10:35;;;;;;;0.10;0.10;;;;;;;10.96;78.49;100758.72;7356197;19;20015;-65
2022/02/28 06:13:01;;;;;;;0.00;0.00;;;;;;;10.97;77.92;100770.88;7367094;19;20015;-65
2022/02/28 06:15:27;;;;;;;0.00;0.00;;;;;;;10.98;78.44;100780.44;7367616;19;20023;-65
2022/02/28 06:17:52;;;;;;;0.00;0.00;;;;;;;10.98;78.48;100748.22;7362577;19;20022;-65
2022/02/28 06:20:18;;;;;;;0.00;0.00;;;;;;;10.89;77.98;100731.00;7363038;19;20482;-65
2022/02/28 06:22:44;;;;;;;0.00;0.00;;;;;;;10.97;77.95;100773.50;7362584;19;20035;-66
2022/02/28 06:25:09;;;;;;;0.00;0.00;;;;;;;11.00;78.04;100765.59;7365905;19;20082;-65
2022/02/28 06:27:35;;;;;;;0.00;0.00;;;;;;;11.00;78.04;100773.44;7364688;19;20579;-65
2022/02/28 06:30:00;;;;;;;0.00;0.00;;;;;;;10.99;78.27;100768.22;7357929;19;20351;-66
2022/02/28 06:32:26;;;;;;;0.00;0.00;;;;;;;10.99;77.95;100790.00;7368185;19;20017;-65
2022/02/28 06:34:51;;;;;;;0.00;0.00;;;;;;;10.93;78.12;100774.47;7363695;19;20010;-66
2022/02/28 06:37:17;;;;;;;0.00;0.00;;;;;;;10.91;77.96;100805.00;7360061;19;20010;-66
2022/02/28 06:39:45;;;;;;;0.00;0.00;;;;;;;10.94;77.93;100828.44;7361387;19;20015;-66
2022/02/28 06:42:10;;;;;;;0.00;0.00;;;;;;;10.82;77.87;100797.38;7362489;19;20038;-65
2022/02/28 06:44:36;;;;;;;0.00;0.00;;;;;;;10.89;77.83;100786.72;7363793;19;20018;-66
2022/02/28 06:47:01;;;;;;;0.00;0.00;;;;;;;10.80;77.96;100786.09;7361110;19;20021;-66
2022/02/28 06:49:27;;;;;;;0.00;0.00;;;;;;;10.84;78.47;100812.09;7362394;19;20086;-65
2022/02/28 06:51:53;;;;;;;0.00;0.00;;;;;;;10.84;78.09;100803.41;7362542;19;20018;-65
2022/02/28 06:54:18;;;;;;;0.00;0.00;;;;;;;10.82;78.53;100792.13;7359217;19;20418;-65
2022/02/28 06:56:44;;;;;;;0.00;0.00;;;;;;;10.73;78.42;100808.00;7363925;19;20018;-65
2022/02/28 06:59:10;;;;;;;0.00;0.00;;;;;;;10.80;78.09;100835.75;7362214;19;20058;-65
2022/02/28 07:01:36;;;;;;;0.00;0.00;;;;;;;10.78;78.29;100829.66;7354046;19;20865;-65
2022/02/28 07:04:03;;;;;;;0.00;0.00;;;;;;;10.75;78.19;100837.59;7361332;19;20014;-65
2022/02/28 07:06:29;;;;;;;0.00;0.00;;;;;;;10.75;78.15;100848.03;7363184;19;20046;-66
2022/02/28 07:08:55;;;;;;;0.05;0.05;;;;;;;10.72;78.25;100816.75;7362735;19;20006;-66
2022/02/28 07:11:21;;;;;;;0.00;0.00;;;;;;;10.63;78.62;100829.09;7362072;19;20027;-66
2022/02/28 07:13:47;;;;;;;0.00;0.00;;;;;;;10.69;78.30;100869.03;7363329;19;20348;-66
2022/02/28 07:16:14;;;;;;;0.00;0.00;;;;;;;10.68;78.39;100880.38;7359286;19;20025;-66
2022/02/28 07:18:40;;;;;;;0.00;0.00;;;;;;;10.58;78.22;100862.28;7361168;19;20003;-65
2022/02/28 07:21:05;;;;;;;0.00;0.00;;;;;;;10.62;78.39;100884.81;7361009;19;20009;-66
2022/02/28 07:23:31;;;;;;;0.00;0.00;;;;;;;10.60;78.28;100876.19;7361564;19;20558;-66
2022/02/28 07:25:56;;;;;;;0.10;0.10;;;;;;;10.58;78.29;100836.16;7363768;19;20010;-65
2022/02/28 07:28:22;;;;;;;0.00;0.00;;;;;;;10.57;78.63;100876.22;7351297;19;20014;-66
2022/02/28 07:30:47;;;;;;;0.00;0.00;;;;;;;10.55;78.77;100893.69;7363452;19;20002;-66
2022/02/28 07:33:13;;;;;;;0.00;0.00;;;;;;;10.55;78.20;100858.88;7361362;19;20082;-65
2022/02/28 07:35:38;;;;;;;0.00;0.00;;;;;;;10.53;78.28;100874.56;7358836;19;20019;-65
2022/02/28 07:38:04;;;;;;;0.10;0.10;;;;;;;10.53;78.32;100885.00;7362622;19;20073;-66
2022/02/28 07:40:29;;;;;;;0.00;0.00;;;;;;;10.55;78.35;100898.91;7348803;19;20010;-66
2022/02/28 07:42:55;;;;;;;0.08;0.08;;;;;;;10.54;78.13;100897.19;7357859;19;20013;-66
2022/02/28 07:45:21;;;;;;;0.00;0.00;;;;;;;10.56;78.79;100897.16;7361312;19;20021;-66
2022/02/28 07:47:47;;;;;;;0.00;0.00;;;;;;;10.56;78.24;100892.78;7350876;19;20014;-66
2022/02/28 07:50:24;;;;;;;0.00;0.00;;;;;;;10.61;78.04;100911.84;3982742;19;10003307;-66
2022/02/28 07:52:49;;;;;;;0.10;0.10;;;;;;;10.61;77.94;100924.03;5023919;19;10001056;-65
2022/02/28 07:55:15;;;;;;;0.00;0.00;;;;;;;10.63;78.17;100930.09;7358285;19;19999;-66
2022/02/28 07:57:40;;;;;;;0.00;0.00;;;;;;;10.59;78.40;100905.81;7358788;19;20014;-66
2022/02/28 08:00:08;;;;;;;0.00;0.00;;;;;;;10.66;78.42;100927.44;7353324;19;20034;-65
2022/02/28 08:02:33;;;;;;;0.00;0.00;;;;;;;10.65;78.00;100918.72;7359677;19;20014;-66
2022/02/28 08:04:58;;;;;;;0.00;0.00;;;;;;;10.68;78.43;100917.78;7357345;19;20011;-66
2022/02/28 08:07:24;;;;;;;0.00;0.00;;;;;;;10.71;78.34;100927.34;7365827;19;20339;-65
2022/02/28 08:09:49;;;;;;;0.00;0.00;;;;;;;10.73;78.61;100922.94;7361754;19;20091;-66
2022/02/28 08:12:15;;;;;;;0.00;0.00;;;;;;;10.74;78.12;100919.44;7363211;19;20053;-66
2022/02/28 08:14:40;;;;;;;0.00;0.00;;;;;;;10.76;78.52;100933.34;7368005;19;20471;-66
2022/02/28 08:17:07;;;;;;;0.00;0.00;;;;;;;10.72;78.47;100931.66;7366658;19;20090;-65
2022/02/28 08:19:32;;;;;;;0.03;0.03;;;;;;;10.80;78.38;100942.84;7353833;19;20490;-65
2022/02/28 08:21:58;;;;;;;0.00;0.00;;;;;;;10.83;78.32;100946.22;7351221;19;20036;-66
2022/02/28 08:24:23;;;;;;;0.00;0.00;;;;;;;10.86;77.78;100961.00;7369586;19;20685;-65
2022/02/28 08:26:49;;;;;;;0.00;0.00;;;;;;;10.83;78.13;100940.16;7358012;19;20003;-66
2022/02/28 08:29:14;;;;;;;0.00;0.00;;;;;;;10.87;78.43;100953.13;7366061;19;20030;-66
2022/02/28 08:31:40;;;;;;;0.00;0.00;;;;;;;10.92;78.14;100955.66;7368239;19;20029;-66
2022/02/28 08:34:06;;;;;;;0.00;0.00;;;;;;;10.95;77.90;100952.97;7356657;19;20014;-66
2022/02/28 08:36:32;;;;;;;0.00;0.00;;;;;;;10.99;78.14;100962.44;7366313;19;20014;-66
2022/02/28 08:38:58;;;;;;;0.10;0.10;;;;;;;11.03;77.95;100974.56;7368948;19;20119;-66
2022/02/28 08:41:23;;;;;;;0.00;0.00;;;;;;;11.07;78.07;100976.25;7360301;19;20399;-66
2022/02/28 08:43:49;;;;;;;0.00;0.00;;;;;;;11.10;78.19;100968.34;7355284;19;20474;-66
2022/02/28 08:46:14;;;;;;;0.05;0.05;;;;;;;11.18;77.85;100984.72;7368274;19;20007;-66
2022/02/28 08:48:39;;;;;;;0.00;0.00;;;;;;;11.22;77.62;100984.66;7362731;19;20013;-66
2022/02/28 08:51:05;;;;;;;0.00;0.00;;;;;;;11.21;77.65;100980.34;7359664;19;20039;-66
2022/02/28 08:53:30;;;;;;;0.00;0.00;;;;;;;11.26;77.62;100986.31;7364889;19;20018;-66
2022/02/28 08:55:56;;;;;;;0.00;0.00;;;;;;;11.27;77.35;100988.91;7360126;19;20078;-66
2022/02/28 08:58:23;;;;;;;0.00;0.00;;;;;;;11.29;77.41;101001.94;7361659;19;20477;-66
2022/02/28 09:00:49;;;;;;;0.00;0.00;;;;;;;11.30;77.77;100999.28;7375470;19;20117;-66
2022/02/28 09:03:15;;;;;;;0.00;0.00;;;;;;;11.33;77.52;100995.75;7360581;19;20022;-66
2022/02/28 09:05:40;;;;;;;0.03;0.03;;;;;;;11.35;77.21;101007.03;7370469;19;20039;-66
2022/02/28 09:08:06;;;;;;;0.00;0.00;;;;;;;11.37;77.22;101007.88;7367756;19;20511;-66
2022/02/28 09:10:32;;;;;;;0.00;0.00;;;;;;;11.39;77.46;101013.91;7359916;19;20007;-66
2022/02/28 09:12:57;;;;;;;0.03;0.03;;;;;;;11.41;77.47;101017.38;7365290;19;20010;-66
2022/02/28 09:15:23;;;;;;;0.00;0.00;;;;;;;11.42;76.95;101019.09;7363410;19;20010;-66
2022/02/28 09:17:48;;;;;;;0.10;0.10;;;;;;;11.33;76.85;101003.59;7358547;19;20025;-66
2022/02/28 09:20:14;;;;;;;0.00;0.00;;;;;;;11.44;77.11;101027.75;7364432;19;20010;-66
2022/02/28 09:22:40;;;;;;;0.00;0.00;;;;;;;11.44;76.97;101030.38;7340802;19;20003;-66
2022/02/28 09:25:07;;;;;;;0.00;0.00;;;;;;;11.40;77.15;101020.84;7359899;19;20407;-66
2022/02/28 09:27:33;;;;;;;0.00;0.00;;;;;;;11.46;76.78;101025.13;7363648;19;20434;-66
2022/02/28 09:29:59;;;;;;;0.10;0.10;;;;;;;11.43;77.39;101031.28;7356345;19;20086;-66
2022/02/28 09:32:24;;;;;;;0.00;0.00;;;;;;;11.49;77.36;101036.38;7363966;19;20106;-66
2022/02/28 09:34:50;;;;;;;0.08;0.08;;;;;;;11.50;76.85;101042.44;7359709;19;20010;-66
2022/02/28 09:37:15;;;;;;;0.03;0.03;;;;;;;11.50;77.17;101035.47;7364866;19;20022;-66
2022/02/28 09:39:41;;;;;;;0.00;0.00;;;;;;;11.51;77.33;101039.81;7361052;19;20018;-66
2022/02/28 09:42:07;;;;;;;0.08;0.08;;;;;;;11.54;77.50;101038.88;7362100;19;20010;-66
2022/02/28 09:44:33;;;;;;;0.00;0.00;;;;;;;11.57;77.53;101054.53;7363799;19;20120;-66
2022/02/28 09:47:00;;;;;;;0.08;0.08;;;;;;;11.56;77.05;101058.91;7365462;19;20560;-66
2022/02/28 09:49:26;;;;;;;0.00;0.00;;;;;;;11.53;77.27;101051.09;7355815;19;20086;-66
2022/02/28 09:51:52;;;;;;;0.10;0.10;;;;;;;11.66;77.39;101056.97;7361558;19;20381;-66
2022/02/28 09:54:17;;;;;;;0.00;0.00;;;;;;;11.68;77.43;101053.41;7364597;19;20031;-67
2022/02/28 09:56:43;;;;;;;0.00;0.00;;;;;;;11.78;77.30;101054.06;7354835;19;20042;-66
2022/02/28 09:59:08;;;;;;;0.00;0.00;;;;;;;11.84;77.20;101048.72;7361658;19;20662;-66
2022/02/28 10:01:34;;;;;;;0.00;0.00;;;;;;;11.91;77.36;101050.31;7368173;19;20010;-67
2022/02/28 10:04:14;;;;;;;0.10;0.10;;;;;;;12.02;76.56;101068.41;6329668;19;10000813;-67
2022/02/28 10:06:42;;;;;;;0.10;0.10;;;;;;;12.00;76.46;101070.16;2742168;19;10001964;-67
2022/02/28 10:09:08;;;;;;;0.00;0.00;;;;;;;12.06;76.32;101090.97;7367675;19;20014;-67
2022/02/28 10:11:39;;;;;;;0.00;0.00;;;;;;;12.09;76.27;101103.13;7371178;19;20010;-67
2022/02/28 10:14:10;;;;;;;0.00;0.00;;;;;;;12.09;76.25;101103.13;7350331;19;20014;-67
2022/02/28 10:16:44;;;;;;;0.00;0.00;;;;;;;12.09;76.30;101106.59;7365287;19;20013;-67
2022/02/28 10:19:13;;;;;;;0.00;0.00;;;;;;;12.06;76.14;101111.03;7344440;19;20087;-67
2022/02/28 10:21:44;;;;;;;0.00;0.00;;;;;;;12.05;76.16;101117.19;7358495;19;20018;-67
2022/02/28 10:24:12;;;;;;;0.00;0.00;;;;;;;12.00;76.38;101125.13;7361714;19;20018;-67
2022/02/28 10:26:49;;;;;;;0.00;0.00;;;;;;;12.01;75.75;101124.22;7361938;19;20852;-67
2022/02/28 10:29:18;;;;;;;0.00;0.00;;;;;;;11.94;76.37;101127.88;7354896;19;20484;-67
2022/02/28 10:31:45;;;;;;;0.00;0.00;;;;;;;11.93;75.96;101128.78;7359175;19;20078;-67
2022/02/28 10:34:20;;;;;;;0.00;0.00;;;;;;;11.93;75.88;101131.41;7360669;19;20061;-67
2022/02/28 10:37:03;;;;;;;0.00;0.00;;;;;;;11.91;75.97;101138.41;7363307;19;20018;-67
2022/02/28 10:39:34;;;;;;;0.00;0.00;;;;;;;11.87;76.13;101152.47;7357170;19;20026;-67
2022/02/28 10:42:05;;;;;;;0.00;0.00;;;;;;;11.83;76.00;101150.81;7363970;19;20018;-67
2022/02/28 10:44:30;;;;;;;0.00;0.00;;;;;;;11.82;76.35;101160.41;7357605;19;20031;-67
2022/02/28 10:47:07;;;;;;;0.00;0.00;;;;;;;11.84;76.08;101163.84;7362335;19;20018;-67
2022/02/28 10:49:34;;;;;;;0.10;0.10;;;;;;;11.81;76.28;101174.38;7351861;19;20035;-67
2022/02/28 10:52:04;;;;;;;0.00;0.00;;;;;;;11.81;76.55;101173.47;7362297;19;20022;-67
2022/02/28 10:54:37;;;;;;;0.00;0.00;;;;;;;11.83;76.46;101192.69;7366571;19;20021;-67
2022/02/28 10:57:04;;;;;;;0.00;0.00;;;;;;;11.82;76.86;101201.44;7370883;19;20025;-67
2022/02/28 10:59:42;;;;;;;0.00;0.00;;;;;;;11.86;76.66;101187.38;7369185;19;20018;-67
2022/02/28 11:02:11;;;;;;;0.03;0.03;;;;;;;11.82;76.62;101190.97;7367586;19;20010;-67
2022/02/28 11:04:39;;;;;;;0.08;0.08;;;;;;;11.85;76.73;101190.88;7359334;19;20010;-67
2022/02/28 11:07:10;;;;;;;0.00;0.00;;;;;;;11.84;76.50;101195.25;7360490;19;20010;-67
2022/02/28 11:09:42;;;;;;;0.05;0.05;;;;;;;11.75;76.42;101178.84;7353556;19;20027;-67
2022/02/28 11:12:29;;;;;;;0.00;0.00;;;;;;;11.86;76.34;101200.44;7358408;19;20010;-67
2022/02/28 11:15:02;;;;;;;0.08;0.08;;;;;;;11.85;76.20;101206.59;7363403;19;20582;-67
2022/02/28 11:17:29;;;;;;;0.00;0.00;;;;;;;11.83;76.29;101214.47;7358531;19;20403;-67
2022/02/28 11:19:58;;;;;;;0.00;0.00;;;;;;;11.78;76.14;101216.28;7362700;19;20029;-67